WetterOnline ( https://www.wetteronline.at )

Wetter aktuell Hamburg

Aktuelles Wetter: Quickborn (17m)

6-stündlich | Neueste Meldungen
Ortszeit Temperatur Wetter
Mi, 19.06. 8:00 20.1° C wolkig
Mi, 19.06. 2:00 15.7° C Nebel
Di, 18.06. 20:00 22.0° C bewölkt
Di, 18.06. 14:00 26.7° C leicht bewölkt
Di, 18.06. 8:00 19.6° C wolkig
Di, 18.06. 2:00 17.0° C wolkenlos
Mo, 17.06. 20:00 23.9° C fast wolkenlos
Mo, 17.06. 14:00 24.2° C wolkenlos
Ortszeit Temperatur Wetter
Mi, 19.06. 9:30 24.3° C wolkenlos
Mi, 19.06. 9:20 24.3° C wolkenlos
Mi, 19.06. 9:10 23.8° C fast wolkenlos
Mi, 19.06. 9:00 23.0° C leicht bewölkt
Mi, 19.06. 8:50 23.0° C wolkig
Mi, 19.06. 8:40 22.3° C wolkig
Mi, 19.06. 8:30 21.6° C wolkig
Mi, 19.06. 8:00 20.1° C wolkig
Mi, 19.06. 7:30 19.1° C wolkig
Mi, 19.06. 7:00 18.9° C wolkig
Mi, 19.06. 6:30 18.3° C bewölkt
Ortszeit Relative Feuchte Sichtweite
Mi, 19.06. 8:00 73% 35 km
Mi, 19.06. 2:00 99% 0.6 km
Di, 18.06. 20:00 66% 50 km
Di, 18.06. 14:00 48% 40 km
Di, 18.06. 8:00 71% 35 km
Di, 18.06. 2:00 76% 55 km
Mo, 17.06. 20:00 49% 60 km
Mo, 17.06. 14:00 43% 65 km
Ortszeit Relative Feuchte Sichtweite
Mi, 19.06. 9:30 58% 45 km
Mi, 19.06. 9:20 58% -
Mi, 19.06. 9:10 61% -
Mi, 19.06. 9:00 64% 40 km
Mi, 19.06. 8:50 64% -
Mi, 19.06. 8:40 67% -
Mi, 19.06. 8:30 66% 45 km
Mi, 19.06. 8:00 73% 35 km
Mi, 19.06. 7:30 75% 45 km
Mi, 19.06. 7:00 77% 45 km
Mi, 19.06. 6:30 80% 40 km
Ortszeit Niederschlagsmenge Niederschlagsart
Mi, 19.06. 8:00 0.1 l/m2 in 12 Std. -
Mi, 19.06. 2:00 0.1 l/m2 in 6 Std. Regen
Di, 18.06. 20:00 0.0 l/m2 in 12 Std. -
Di, 18.06. 14:00 0.0 l/m2 in 6 Std. -
Di, 18.06. 8:00 0.0 l/m2 in 12 Std. -
Di, 18.06. 2:00 0.0 l/m2 in 6 Std. -
Mo, 17.06. 20:00 0.0 l/m2 in 12 Std. -
Mo, 17.06. 14:00 0.0 l/m2 in 6 Std. -
Ortszeit Niederschlagsmenge Niederschlagsart
Mi, 19.06. 9:30 0.0 l/m2 in 1 Std. -
Mi, 19.06. 9:20 keine Meldung -
Mi, 19.06. 9:10 keine Meldung -
Mi, 19.06. 9:00 0.0 l/m2 in 1 Std. -
Mi, 19.06. 8:50 keine Meldung -
Mi, 19.06. 8:40 keine Meldung -
Mi, 19.06. 8:30 0.0 l/m2 in 1 Std. -
Mi, 19.06. 8:00 0.0 l/m2 in 1 Std. -
Mi, 19.06. 7:30 0.0 l/m2 in 1 Std. -
Mi, 19.06. 7:00 0.0 l/m2 in 1 Std. -
Mi, 19.06. 6:30 0.0 l/m2 in 1 Std. -
Ortszeit Stärke Spitze Richtung
km/h Bft. km/h Grad Sektor
Mi, 19.06. 8:00 7 2 11 140° SO
Mi, 19.06. 2:00 4 1 29 340° N
Di, 18.06. 20:00 7 2 58 350° N
Di, 18.06. 14:00 11 2 22 170° S
Di, 18.06. 8:00 9 2 20 150° SO
Di, 18.06. 2:00 7 2 14 110° O
Mo, 17.06. 20:00 7 2 22 140° SO
Mo, 17.06. 14:00 6 1 17 240° SW
Ortszeit Stärke Spitze Richtung
km/h Bft. km/h Grad Sektor
Mi, 19.06. 9:30 7 2 11 110° O
Mi, 19.06. 9:20 7 2 - 110° O
Mi, 19.06. 9:10 7 2 - 140° SO
Mi, 19.06. 9:00 6 1 15 130° SO
Mi, 19.06. 8:50 6 1 - 130° SO
Mi, 19.06. 8:40 7 2 - 140° SO
Mi, 19.06. 8:30 9 2 15 140° SO
Mi, 19.06. 8:00 7 2 11 140° SO
Mi, 19.06. 7:30 6 1 9 140° SO
Mi, 19.06. 7:00 4 1 11 130° SO
Mi, 19.06. 6:30 4 1 11 120° SO
Ortszeit Untergrenze Bedeckung Gattung
total tief tief mittel hoch
Mi, 19.06. 8:00 3300 m 8/8 2/8 - - -
Mi, 19.06. 2:00 7800 m 8/8 0/8 - - -
Di, 18.06. 20:00 2100 m 8/8 6/8 - - -
Di, 18.06. 14:00 1800 m 3/8 3/8 - - -
Di, 18.06. 8:00 7200 m 8/8 0/8 - - -
Di, 18.06. 2:00 - 0/8 0/8 - - -
Mo, 17.06. 20:00 1800 m 1/8 1/8 - - -
Mo, 17.06. 14:00 - 0/8 0/8 - - -
Ortszeit Bedeckungsgrad in Achtel und Wolkenuntergrenze
Mi, 19.06. 9:30 keine Wolken
Mi, 19.06. 9:20 keine Wolken
Mi, 19.06. 9:10 1(8700m)
Mi, 19.06. 9:00 7(8700m)
Mi, 19.06. 8:50 7(8700m)
Mi, 19.06. 8:40 8(8400m)
Mi, 19.06. 8:30 8(8100m)
Mi, 19.06. 8:00 2(3300m) 8(8100m) 8(9000m)
Mi, 19.06. 7:30 3(3000m) 8(8100m) 8(9000m)
Mi, 19.06. 7:00 3(2700m) 8(8400m) 8(9000m)
Mi, 19.06. 6:30 5(2700m) 8(7500m) 8(8400m)
Ortszeit Luftdruck NN (hPa) Tendenz (hPa in 3 Std.)
Mi, 19.06. 8:00 1009 - 0,8
Mi, 19.06. 2:00 1012 - 1,1
Di, 18.06. 20:00 1013 - 0,2
Di, 18.06. 14:00 1015 - 1,3
Di, 18.06. 8:00 1017 - 0,5
Di, 18.06. 2:00 1018 - 0,2
Mo, 17.06. 20:00 1019 - 1,1
Mo, 17.06. 14:00 1021 - 1,0
Ortszeit Luftdruck NN (hPa) Tendenz (hPa in 3 Std.)
Mi, 19.06. 9:30 1009 - 1,2
Mi, 19.06. 9:20 1009 keine Meldung
Mi, 19.06. 9:10 1009 keine Meldung
Mi, 19.06. 9:00 1009 - 0,9
Mi, 19.06. 8:50 1009 keine Meldung
Mi, 19.06. 8:40 1009 keine Meldung
Mi, 19.06. 8:30 1009 - 0,9
Mi, 19.06. 8:00 1009 - 0,8
Mi, 19.06. 7:30 1009 - 0,9
Mi, 19.06. 7:00 1010 - 1,1
Mi, 19.06. 6:30 1010 - 1,1
Ortszeit Schneehöhe (cm)
Mi, 19.06. 8:00 -
Mi, 19.06. 2:00 -
Di, 18.06. 20:00 -
Di, 18.06. 14:00 -
Di, 18.06. 8:00 -
Di, 18.06. 2:00 -
Mo, 17.06. 20:00 -
Mo, 17.06. 14:00 -
Ortszeit Schneehöhe (cm)
Mi, 19.06. 9:30 -
Mi, 19.06. 9:20 -
Mi, 19.06. 9:10 -
Mi, 19.06. 9:00 -
Mi, 19.06. 8:50 -
Mi, 19.06. 8:40 -
Mi, 19.06. 8:30 -
Mi, 19.06. 8:00 -
Mi, 19.06. 7:30 -
Mi, 19.06. 7:00 -
Mi, 19.06. 6:30 -
Link zu dieser Seite / Seite empfehlen

Das Wetter in ...